Flight Track Log - Related Links

Times and Time Zones

All times are in EDT time to prevent confusion due to time zone crossing. See the SKW4664 flight status page for this flight to view local times or setup timezone preferences in your user account.


Time Position Orientation Groundspeed Altitude Reporting Facility
EDT Latitude Longitude Course Direction KTS MPH feet Rate Location/Type
Tue 12:10:24 PM 43.6228 -96.7458 52° Northeast 152 175 3,000  Level Minneapolis Center
Tue 12:11:26 PM 43.6575 -96.6878 50° Northeast 192 221 5,300 1,984 Climbing Minneapolis Center
Tue 12:12:28 PM 43.6975 -96.6119 54° Northeast 219 252 7,100 1,968 Climbing Minneapolis Center
Tue 12:13:00 PM 43.8416 -96.2544 53° Northeast  Level FlightAware Approximate
Tue 12:13:31 PM 43.7458 -96.5214 54° Northeast 259 298 9,400  Level Minneapolis Center
Tue 12:14:00 PM 43.9086 -96.1314 53° Northeast  Level FlightAware Approximate
Tue 12:14:32 PM 43.7858 -96.4467 53° Northeast 285 328 11,200  Level Minneapolis Center
Tue 12:15:00 PM 43.9766 -96.0091 52° Northeast  Level FlightAware Approximate
Tue 12:15:35 PM 43.8564 -96.3106 54° Northeast 310 357 14,100  Level Minneapolis Center
Tue 12:16:37 PM 43.9036 -96.1908 61° Northeast 351 404 14,600 726 Climbing Minneapolis Center
Tue 12:17:39 PM 43.9575 -96.0592 60° Northeast 391 450 15,600 1,548 Climbing Minneapolis Center
Tue 12:18:41 PM 44.0108 -95.9244 61° Northeast 403 464 17,800 2,468 Climbing Minneapolis Center
Tue 12:19:43 PM 44.0878 -95.8083 47° Northeast 351 404 20,700 2,129 Climbing Minneapolis Center
Tue 12:20:45 PM 44.1664 -95.7292 36° Northeast 351 404 22,200 1,113 Climbing Minneapolis Center
Tue 12:21:47 PM 44.2456 -95.6453 37° Northeast 358 412 23,000 387 Climbing Minneapolis Center
Tue 12:22:49 PM 44.3267 -95.5625 36° Northeast 362 417 23,000  Level Minneapolis Center
Tue 12:24:03 PM 44.3814 -95.4461 57° Northeast 378 435 23,000  Level Minneapolis Center
Tue 12:25:06 PM 44.4308 -95.2475 71° East 387 445 23,000  Level Minneapolis Center
Tue 12:26:08 PM 44.4661 -95.1036 71° East 390 449 23,000 -194 Level Minneapolis Center
Tue 12:27:10 PM 44.5014 -94.9606 71° East 390 449 22,600 -1,258 Descending Minneapolis Center
Tue 12:28:12 PM 44.5375 -94.8128 71° East 397 457 20,400 -2,081 Descending Minneapolis Center
Tue 12:29:14 PM 44.5733 -94.6644 71° East 402 463 18,300 -2,129 Descending Minneapolis Center
Tue 12:30:16 PM 44.6111 -94.5081 71° East 391 450 16,000 -2,081 Descending Minneapolis Center
Tue 12:31:18 PM 44.6431 -94.3731 72° East 365 420 14,000 -1,935 Descending Minneapolis Center
Tue 12:32:20 PM 44.6731 -94.2436 72° East 349 402 12,000 -1,324 Descending Minneapolis Center
Tue 12:33:34 PM 44.7019 -94.1183 72° East 337 388 11,000 -438 Descending Minneapolis Center
Tue 12:34:37 PM 44.7403 -93.9464 73° East 331 381 11,000  Level Minneapolis Center
Tue 12:35:39 PM 44.7686 -93.8203 72° East 338 389 11,000  Level Minneapolis Center
Tue 12:36:53 PM 44.7969 -93.6925 73° East 342 394 11,000 -568 Level Minneapolis Center
Tue 12:38:07 PM 44.8275 -93.5536 73° East 306 352 9,600 -1,226 Descending Minneapolis Center
Tue 12:39:10 PM 44.8556 -93.4256 73° East 285 328 8,200 -768 Descending Minneapolis Center
Tue 12:40:12 PM 44.8397 -93.3425 105° East 258 297 8,000 -629 Descending Minneapolis Center
Tue 12:41:14 PM 44.7569 -93.3175 168° South 258 297 6,900 -926 Descending Minneapolis Center
Tue 12:42:28 PM 44.6897 -93.3025 171° South 251 289 5,900 -788 Descending Minneapolis Center
Tue 12:43:31 PM 44.6622 -93.2297 118° Southeast 203 234 5,100 -720 Descending Minneapolis Center
Tue 12:44:33 PM 44.7089 -93.1967 27° Northeast 179 206 4,400 -677 Descending Minneapolis Center

Login

Don't have an account? Register now (free) for customized features, flight alerts, and more!